createdAt,value
2023-04-29T00:01:36.128Z,20.42
2023-04-29T00:04:03.020Z,19.71
2023-04-29T00:06:30.521Z,20.11
2023-04-29T00:08:57.019Z,20.28
2023-04-29T00:11:23.436Z,19.85
2023-04-29T00:13:49.866Z,19.81
2023-04-29T00:16:16.294Z,19.86
2023-04-29T00:18:42.727Z,20.47
2023-04-29T00:21:09.155Z,20.47
2023-04-29T00:23:35.548Z,19.98
2023-04-29T00:26:01.961Z,19.88
2023-04-29T00:28:28.412Z,19.50
2023-04-29T00:30:55.994Z,20.24
2023-04-29T00:33:22.596Z,20.08
2023-04-29T00:35:49.129Z,19.78
2023-04-29T00:38:15.522Z,19.83
2023-04-29T00:40:43.637Z,19.56
2023-04-29T00:43:10.198Z,19.68
2023-04-29T00:45:36.600Z,19.44
2023-04-29T00:48:03.098Z,20.08
2023-04-29T00:50:30.343Z,20.49
2023-04-29T00:52:56.987Z,20.09
2023-04-29T00:55:24.069Z,20.50
2023-04-29T00:57:52.723Z,20.44
2023-04-29T01:00:19.428Z,20.96
2023-04-29T01:02:46.736Z,20.98
2023-04-29T01:05:13.348Z,21.32
2023-04-29T01:07:49.056Z,20.38
2023-04-29T01:10:16.869Z,20.43
2023-04-29T01:13:01.870Z,20.34
2023-04-29T01:15:32.015Z,20.71
2023-04-29T01:18:30.264Z,21.20
2023-04-29T01:20:58.109Z,20.87
2023-04-29T01:23:28.448Z,20.80
2023-04-29T01:25:55.657Z,20.32
2023-04-29T01:28:46.730Z,19.49
2023-04-29T01:31:31.388Z,19.93
2023-04-29T01:34:19.857Z,19.82
2023-04-29T01:37:18.647Z,20.37
2023-04-29T01:39:56.808Z,20.10
2023-04-29T01:42:29.016Z,19.76
2023-04-29T01:44:56.545Z,19.43
2023-04-29T01:47:23.457Z,20.19
2023-04-29T01:49:50.088Z,19.94
2023-04-29T01:52:16.605Z,19.19
2023-04-29T01:54:43.345Z,20.01
2023-04-29T01:57:09.783Z,19.42
2023-04-29T01:59:36.418Z,19.76
2023-04-29T02:02:02.787Z,19.98
2023-04-29T02:04:29.226Z,20.27
2023-04-29T02:06:55.654Z,19.49
2023-04-29T02:09:22.067Z,19.78
2023-04-29T02:11:48.473Z,20.31
2023-04-29T02:14:14.871Z,20.07
2023-04-29T02:16:44.419Z,19.34
2023-04-29T02:19:11.826Z,19.76
2023-04-29T02:21:40.007Z,20.01
2023-04-29T02:24:07.065Z,20.31
2023-04-29T02:26:34.377Z,20.37
2023-04-29T02:29:00.828Z,19.96
2023-04-29T02:31:28.976Z,19.63
2023-04-29T02:33:55.609Z,19.18
2023-04-29T02:36:22.022Z,20.21
2023-04-29T02:38:50.711Z,20.77
2023-04-29T02:41:18.181Z,19.86
2023-04-29T02:43:44.842Z,20.83
2023-04-29T02:46:11.473Z,20.48
2023-04-29T02:48:37.931Z,20.57
2023-04-29T02:51:04.329Z,20.65
2023-04-29T02:53:30.767Z,19.98
2023-04-29T02:55:57.395Z,19.59
2023-04-29T02:58:23.862Z,20.39
2023-04-29T03:00:50.747Z,20.02
2023-04-29T03:03:17.411Z,19.77
2023-04-29T03:05:44.410Z,19.25
2023-04-29T03:08:11.225Z,20.42
2023-04-29T03:10:39.261Z,19.52
2023-04-29T03:13:07.613Z,19.28
2023-04-29T03:15:34.021Z,19.51
2023-04-29T03:18:01.964Z,19.59
2023-04-29T03:20:29.647Z,20.07
2023-04-29T03:22:56.190Z,19.71
2023-04-29T03:25:22.929Z,19.61
2023-04-29T03:27:49.327Z,18.79
2023-04-29T03:30:15.699Z,19.24
2023-04-29T03:32:42.271Z,19.85
2023-04-29T03:35:08.937Z,19.96
2023-04-29T03:37:35.474Z,19.69
2023-04-29T03:40:01.837Z,19.56
2023-04-29T03:42:28.329Z,19.49
2023-04-29T03:44:54.898Z,19.88
2023-04-29T03:47:21.300Z,20.10
2023-04-29T03:49:47.677Z,20.17
2023-04-29T03:52:14.100Z,20.58
2023-04-29T03:54:41.009Z,20.18
2023-04-29T03:57:07.428Z,20.86
2023-04-29T03:59:33.982Z,20.78
2023-04-29T04:02:00.475Z,20.24
2023-04-29T04:04:27.100Z,20.15
2023-04-29T04:06:53.610Z,19.48
2023-04-29T04:09:20.001Z,19.78
2023-04-29T04:11:46.625Z,20.30
2023-04-29T04:14:13.027Z,20.26
2023-04-29T04:16:39.552Z,20.60
2023-04-29T04:19:06.017Z,20.08
2023-04-29T04:21:32.403Z,20.78
2023-04-29T04:23:58.760Z,20.54
2023-04-29T04:26:25.326Z,20.94
2023-04-29T04:28:51.823Z,20.73
2023-04-29T04:31:18.291Z,20.83
2023-04-29T04:33:44.701Z,20.66
2023-04-29T04:36:11.311Z,20.54
2023-04-29T04:38:37.683Z,20.24
2023-04-29T04:41:07.091Z,21.08
2023-04-29T04:43:33.673Z,20.68
2023-04-29T04:46:00.191Z,21.13
2023-04-29T04:48:26.637Z,21.24
2023-04-29T04:50:53.036Z,21.17
2023-04-29T04:53:19.415Z,22.02
2023-04-29T04:55:46.836Z,21.60
2023-04-29T04:58:13.238Z,21.41
2023-04-29T05:00:44.354Z,20.80
2023-04-29T05:03:10.961Z,20.56
2023-04-29T05:05:37.826Z,20.40
2023-04-29T05:08:04.434Z,21.32
2023-04-29T05:10:30.851Z,21.84
2023-04-29T05:12:57.297Z,21.80
2023-04-29T05:15:23.847Z,21.87
2023-04-29T05:17:50.344Z,21.57
2023-04-29T05:20:16.833Z,22.04
2023-04-29T05:22:43.343Z,21.92
2023-04-29T05:25:10.089Z,22.01
2023-04-29T05:27:36.473Z,21.56
2023-04-29T05:30:02.965Z,21.32
2023-04-29T05:32:29.486Z,21.98
2023-04-29T05:34:56.644Z,21.40
2023-04-29T05:37:23.025Z,21.42
2023-04-29T05:39:49.380Z,21.14
2023-04-29T05:42:15.862Z,20.75
2023-04-29T05:44:42.297Z,20.60
2023-04-29T05:47:08.998Z,20.75
2023-04-29T05:49:35.658Z,20.90
2023-04-29T05:52:06.297Z,20.70
2023-04-29T05:54:33.655Z,19.99
2023-04-29T05:57:02.338Z,21.41
2023-04-29T05:59:32.452Z,22.12
2023-04-29T06:01:59.699Z,21.65
2023-04-29T06:04:27.059Z,21.77
2023-04-29T06:06:54.302Z,21.44
2023-04-29T06:09:27.586Z,22.21
2023-04-29T06:11:54.544Z,22.04
2023-04-29T06:14:21.001Z,22.53
2023-04-29T06:16:49.026Z,21.80
2023-04-29T06:19:15.536Z,22.00
2023-04-29T06:21:41.976Z,22.16
2023-04-29T06:24:09.137Z,21.69
2023-04-29T06:26:35.523Z,21.53
2023-04-29T06:29:01.969Z,22.52
2023-04-29T06:31:28.722Z,22.53
2023-04-29T06:33:55.251Z,22.63
2023-04-29T06:36:21.687Z,22.59
2023-04-29T06:38:48.060Z,21.96
2023-04-29T06:41:14.474Z,22.59
2023-04-29T06:43:43.104Z,22.28
2023-04-29T06:46:09.952Z,21.67
2023-04-29T06:48:36.809Z,22.40
2023-04-29T06:51:03.226Z,21.94
2023-04-29T06:53:29.691Z,21.60
2023-04-29T06:55:56.218Z,21.46
2023-04-29T06:58:22.629Z,21.33
2023-04-29T07:00:50.608Z,22.21
2023-04-29T07:03:18.179Z,22.97
2023-04-29T07:05:47.787Z,22.14
2023-04-29T07:08:14.403Z,22.33
2023-04-29T07:10:41.683Z,22.49
2023-04-29T07:13:08.165Z,21.29
2023-04-29T07:15:35.605Z,21.42
2023-04-29T07:18:04.354Z,21.28
2023-04-29T07:20:31.088Z,19.83
2023-04-29T07:22:57.512Z,20.98
2023-04-29T07:25:23.951Z,21.16
2023-04-29T07:27:50.409Z,21.01
2023-04-29T07:30:16.794Z,21.92
2023-04-29T07:32:43.273Z,22.48
2023-04-29T07:35:09.787Z,21.62
2023-04-29T07:37:36.192Z,22.45
2023-04-29T07:40:02.572Z,23.13
2023-04-29T07:42:28.993Z,23.04
2023-04-29T07:44:55.852Z,23.80
2023-04-29T07:47:22.286Z,23.86
2023-04-29T07:49:48.756Z,23.12
2023-04-29T07:52:15.146Z,23.78
2023-04-29T07:54:41.542Z,23.57
2023-04-29T07:57:07.969Z,23.54
2023-04-29T07:59:34.355Z,21.82
2023-04-29T08:02:00.994Z,22.10
2023-04-29T08:04:27.573Z,23.64
2023-04-29T08:06:54.241Z,23.46
2023-04-29T08:09:21.221Z,23.43
2023-04-29T08:11:47.679Z,23.92
2023-04-29T08:14:14.187Z,24.49
2023-04-29T08:16:40.824Z,23.43
2023-04-29T08:19:07.512Z,23.54
2023-04-29T08:21:34.816Z,22.38
2023-04-29T08:24:01.354Z,23.30
2023-04-29T08:26:28.134Z,22.35
2023-04-29T08:28:54.620Z,23.55
2023-04-29T08:31:21.829Z,24.88
2023-04-29T08:33:48.772Z,24.15
2023-04-29T08:36:15.486Z,23.80
2023-04-29T08:38:41.930Z,23.76
2023-04-29T08:41:11.968Z,23.01
2023-04-29T08:43:40.800Z,23.18
2023-04-29T08:46:07.831Z,22.62
2023-04-29T08:48:36.128Z,24.39
2023-04-29T08:51:02.736Z,24.36
2023-04-29T08:53:29.373Z,23.02
2023-04-29T08:56:05.301Z,23.09
2023-04-29T08:58:34.446Z,22.88
2023-04-29T09:01:01.082Z,24.01
2023-04-29T09:03:32.262Z,24.34
2023-04-29T09:06:00.789Z,24.37
2023-04-29T09:08:27.693Z,22.47
2023-04-29T09:10:54.659Z,21.90
2023-04-29T09:13:25.401Z,22.73
2023-04-29T09:15:52.011Z,23.95
2023-04-29T09:18:44.154Z,23.90
2023-04-29T09:21:15.574Z,24.71
2023-04-29T09:23:42.348Z,23.88
2023-04-29T09:26:08.780Z,24.16
2023-04-29T09:28:35.234Z,24.06
2023-04-29T09:31:06.241Z,22.69
2023-04-29T09:33:33.112Z,23.27
2023-04-29T09:36:00.889Z,24.09
2023-04-29T09:38:27.284Z,25.60
2023-04-29T09:40:59.463Z,25.41
2023-04-29T09:43:27.291Z,24.98
2023-04-29T09:45:53.895Z,25.18
2023-04-29T09:48:20.423Z,25.54
2023-04-29T09:51:01.550Z,25.67
2023-04-29T09:53:29.756Z,26.22
2023-04-29T09:56:01.503Z,25.47
2023-04-29T09:58:38.223Z,23.26
2023-04-29T10:01:05.382Z,24.39
2023-04-29T10:03:34.777Z,25.85
2023-04-29T10:06:02.626Z,24.60
2023-04-29T10:08:29.721Z,25.30
2023-04-29T10:10:59.944Z,25.40
2023-04-29T10:13:28.295Z,25.39
2023-04-29T10:16:01.963Z,24.70
2023-04-29T10:18:37.582Z,26.38
2023-04-29T10:21:08.139Z,26.63
2023-04-29T10:23:34.904Z,26.59
2023-04-29T10:26:03.842Z,26.54
2023-04-29T10:28:33.677Z,25.06
2023-04-29T10:31:05.101Z,25.18
2023-04-29T10:33:33.839Z,25.70
2023-04-29T10:36:01.144Z,25.53
2023-04-29T10:38:36.137Z,25.66
2023-04-29T10:41:10.935Z,25.04
2023-04-29T10:43:37.413Z,25.03
2023-04-29T10:46:16.276Z,25.28
2023-04-29T10:48:46.988Z,23.36
2023-04-29T10:51:14.405Z,23.58
2023-04-29T10:54:01.302Z,24.56
2023-04-29T10:56:41.201Z,25.11
2023-04-29T10:59:13.028Z,26.04
2023-04-29T11:01:52.919Z,26.28
2023-04-29T11:04:23.001Z,26.76
2023-04-29T11:06:55.099Z,26.53
2023-04-29T11:09:24.467Z,24.88
2023-04-29T11:12:06.593Z,25.36
2023-04-29T11:14:43.185Z,26.64
2023-04-29T11:17:10.037Z,26.90
2023-04-29T11:19:47.481Z,26.34
2023-04-29T11:22:21.517Z,26.03
2023-04-29T11:25:02.064Z,25.72
2023-04-29T11:27:36.356Z,26.87
2023-04-29T11:30:05.281Z,25.68
2023-04-29T11:32:33.446Z,24.13
2023-04-29T11:35:13.253Z,24.78
2023-04-29T11:37:41.080Z,24.90
2023-04-29T11:40:08.676Z,24.35
2023-04-29T11:42:39.157Z,23.69
2023-04-29T11:45:06.913Z,23.53
2023-04-29T11:47:33.408Z,23.29
2023-04-29T11:50:04.821Z,23.69
2023-04-29T11:52:31.275Z,24.56
2023-04-29T11:54:59.636Z,24.82
2023-04-29T11:57:26.751Z,24.51
2023-04-29T11:59:53.640Z,25.59
2023-04-29T12:02:23.781Z,23.11
2023-04-29T12:04:51.105Z,23.96
2023-04-29T12:07:18.110Z,23.42
2023-04-29T12:09:45.042Z,24.45
2023-04-29T12:12:12.152Z,24.52
2023-04-29T12:14:38.747Z,23.60
2023-04-29T12:17:05.824Z,24.90
2023-04-29T12:19:32.432Z,25.99
2023-04-29T12:21:59.541Z,26.01
2023-04-29T12:24:25.966Z,26.81
2023-04-29T12:26:54.030Z,25.63
2023-04-29T12:29:23.431Z,25.87
2023-04-29T12:31:51.370Z,26.80
2023-04-29T12:34:18.093Z,26.15
2023-04-29T12:36:44.663Z,26.14
2023-04-29T12:39:11.388Z,26.23
2023-04-29T12:41:42.112Z,24.59
2023-04-29T12:44:10.842Z,23.30
2023-04-29T12:46:39.138Z,25.14
2023-04-29T12:49:06.081Z,25.74
2023-04-29T12:51:33.165Z,26.26
2023-04-29T12:54:04.227Z,24.92
2023-04-29T12:56:31.751Z,26.38
2023-04-29T12:59:06.378Z,25.96
2023-04-29T13:01:33.218Z,25.18
2023-04-29T13:03:59.847Z,24.91
2023-04-29T13:06:27.409Z,26.01
2023-04-29T13:08:54.542Z,25.79
2023-04-29T13:11:21.147Z,24.17
2023-04-29T13:13:47.457Z,24.99
2023-04-29T13:16:13.871Z,25.77
2023-04-29T13:18:40.246Z,24.39
2023-04-29T13:21:06.566Z,23.09
2023-04-29T13:23:33.073Z,22.64
2023-04-29T13:25:59.439Z,23.29
2023-04-29T13:28:25.839Z,23.99
2023-04-29T13:30:52.263Z,23.94
2023-04-29T13:33:19.599Z,23.04
2023-04-29T13:35:46.953Z,24.58
2023-04-29T13:38:13.666Z,25.16
2023-04-29T13:40:45.991Z,23.25
2023-04-29T13:43:15.910Z,23.35
2023-04-29T13:45:49.109Z,24.05
2023-04-29T13:48:28.342Z,24.36
2023-04-29T13:56:58.314Z,24.52
2023-04-29T14:01:44.113Z,23.43
2023-04-29T14:04:03.291Z,23.70
2023-04-29T14:06:32.362Z,23.06
2023-04-29T14:09:00.038Z,23.30
2023-04-29T14:11:27.562Z,24.38
2023-04-29T14:13:53.914Z,24.66
2023-04-29T14:16:20.482Z,23.96
2023-04-29T14:18:47.016Z,24.49
2023-04-29T14:21:13.894Z,25.35
2023-04-29T14:23:41.152Z,24.45
2023-04-29T14:26:23.113Z,23.54
2023-04-29T14:28:57.671Z,22.53
2023-04-29T14:31:24.637Z,23.44
2023-04-29T14:33:51.774Z,23.07
2023-04-29T14:36:18.208Z,23.01
2023-04-29T14:38:44.530Z,23.80
2023-04-29T14:41:10.924Z,24.10
2023-04-29T14:43:37.305Z,24.23
2023-04-29T14:46:03.728Z,24.72
2023-04-29T14:48:30.079Z,23.18
2023-04-29T14:50:56.479Z,23.20
2023-04-29T14:53:22.803Z,24.00
2023-04-29T14:55:52.190Z,23.08
2023-04-29T14:58:18.696Z,22.95
2023-04-29T15:00:45.005Z,22.08
2023-04-29T15:03:20.011Z,22.95
2023-04-29T15:05:49.950Z,23.48
2023-04-29T15:08:17.554Z,23.61
2023-04-29T15:10:46.585Z,23.21
2023-04-29T15:13:13.110Z,22.94
2023-04-29T15:15:39.491Z,23.74
2023-04-29T15:18:07.685Z,22.92
2023-04-29T15:20:34.714Z,23.05
2023-04-29T15:23:01.134Z,25.19
2023-04-29T15:25:27.722Z,23.48
2023-04-29T15:27:54.163Z,24.19
2023-04-29T15:30:20.727Z,25.69
2023-04-29T15:32:47.085Z,25.93
2023-04-29T15:35:13.453Z,25.05
2023-04-29T15:37:39.944Z,23.71
2023-04-29T15:40:06.679Z,24.27
2023-04-29T15:42:33.060Z,23.81
2023-04-29T15:44:59.335Z,23.32
2023-04-29T15:47:25.731Z,24.60
2023-04-29T15:49:54.348Z,23.14
2023-04-29T15:52:20.948Z,22.72
2023-04-29T15:54:47.361Z,21.77
2023-04-29T15:57:14.100Z,21.49
2023-04-29T15:59:40.555Z,22.02
2023-04-29T16:02:10.700Z,21.84
2023-04-29T16:04:40.250Z,21.82
2023-04-29T16:07:06.817Z,22.22
2023-04-29T16:09:33.722Z,22.58
2023-04-29T16:12:00.561Z,22.22
2023-04-29T16:14:26.956Z,22.04
2023-04-29T16:16:53.641Z,21.78
2023-04-29T16:19:20.118Z,22.63
2023-04-29T16:21:46.563Z,22.72
2023-04-29T16:24:13.401Z,23.12
2023-04-29T16:26:43.228Z,23.26
2023-04-29T16:29:10.102Z,23.93
2023-04-29T16:31:36.505Z,23.21
2023-04-29T16:34:03.310Z,23.15
2023-04-29T16:36:30.126Z,22.63
2023-04-29T16:38:57.818Z,22.99
2023-04-29T16:41:26.035Z,23.06
2023-04-29T16:43:53.833Z,22.81
2023-04-29T16:46:20.326Z,23.95
2023-04-29T16:48:47.072Z,23.31
2023-04-29T16:51:13.463Z,23.12
2023-04-29T16:53:39.870Z,23.60
2023-04-29T16:56:06.568Z,22.70
2023-04-29T16:58:32.964Z,22.82
2023-04-29T17:00:59.366Z,22.89
2023-04-29T17:03:25.879Z,23.03
2023-04-29T17:05:52.610Z,22.55
2023-04-29T17:08:19.096Z,22.12
2023-04-29T17:10:45.511Z,22.58
2023-04-29T17:13:11.977Z,22.52
2023-04-29T17:15:38.388Z,22.15
2023-04-29T17:18:04.877Z,22.67
2023-04-29T17:20:31.573Z,22.65
2023-04-29T17:22:58.025Z,22.14
2023-04-29T17:25:24.433Z,22.72
2023-04-29T17:27:51.001Z,22.30
2023-04-29T17:30:17.425Z,22.59
2023-04-29T17:32:44.444Z,21.87
2023-04-29T17:35:11.565Z,22.65
2023-04-29T17:37:38.259Z,22.98
2023-04-29T17:40:05.235Z,22.64
2023-04-29T17:42:31.673Z,21.54
2023-04-29T17:44:58.113Z,21.57
2023-04-29T17:47:24.600Z,22.24
2023-04-29T17:49:51.882Z,22.17
2023-04-29T17:52:21.282Z,22.41
2023-04-29T17:54:48.671Z,22.15
2023-04-29T17:57:15.094Z,21.72
2023-04-29T17:59:41.540Z,21.65
2023-04-29T18:02:07.897Z,22.09
2023-04-29T18:04:34.469Z,22.17
2023-04-29T18:07:01.738Z,21.48
2023-04-29T18:09:28.145Z,21.55
2023-04-29T18:11:54.625Z,20.89
2023-04-29T18:14:21.449Z,20.50
2023-04-29T18:16:47.908Z,20.39
2023-04-29T18:19:14.550Z,19.95
2023-04-29T18:21:41.027Z,20.35
2023-04-29T18:24:07.845Z,20.29
2023-04-29T18:26:34.242Z,20.35
2023-04-29T18:29:00.778Z,20.70
2023-04-29T18:31:27.245Z,21.08
2023-04-29T18:33:53.962Z,21.21
2023-04-29T18:36:23.668Z,20.71
2023-04-29T18:38:50.662Z,19.55
2023-04-29T18:41:17.358Z,20.66
2023-04-29T18:43:43.802Z,20.17
2023-04-29T18:46:10.250Z,19.96
2023-04-29T18:48:38.243Z,20.07
2023-04-29T18:51:05.933Z,20.14
2023-04-29T18:53:32.533Z,20.39
2023-04-29T18:55:59.042Z,20.53
2023-04-29T18:58:28.316Z,20.55
2023-04-29T19:00:55.209Z,20.88
2023-04-29T19:03:21.682Z,20.30
2023-04-29T19:05:48.208Z,20.43
2023-04-29T19:08:17.506Z,20.51
2023-04-29T19:10:44.663Z,20.44
2023-04-29T19:13:11.547Z,20.36
2023-04-29T19:15:38.732Z,19.69
2023-04-29T19:18:05.312Z,20.19
2023-04-29T19:20:32.816Z,19.81
2023-04-29T19:22:59.193Z,20.40
2023-04-29T19:25:28.530Z,19.77
2023-04-29T19:27:54.964Z,18.88
2023-04-29T19:30:21.643Z,18.72
2023-04-29T19:32:48.603Z,19.25
2023-04-29T19:35:15.109Z,19.79
2023-04-29T19:37:41.506Z,19.52
2023-04-29T19:40:10.515Z,19.59
2023-04-29T19:42:37.803Z,20.30
2023-04-29T19:45:07.535Z,19.64
2023-04-29T19:47:34.801Z,20.01
2023-04-29T19:50:02.052Z,20.37
2023-04-29T19:52:29.677Z,20.52
2023-04-29T19:54:56.386Z,19.96
2023-04-29T19:57:22.776Z,19.74
2023-04-29T19:59:49.222Z,19.60
2023-04-29T20:02:15.739Z,19.17
2023-04-29T20:04:42.469Z,19.81
2023-04-29T20:07:08.970Z,19.37
2023-04-29T20:09:35.386Z,19.46
2023-04-29T20:12:04.057Z,19.44
2023-04-29T20:14:30.714Z,19.51
2023-04-29T20:16:59.637Z,19.07
2023-04-29T20:19:26.895Z,19.38
2023-04-29T20:21:53.697Z,19.19
2023-04-29T20:24:20.138Z,20.10
2023-04-29T20:26:46.597Z,19.08
2023-04-29T20:29:12.976Z,19.47
2023-04-29T20:31:39.446Z,18.97
2023-04-29T20:34:05.899Z,19.42
2023-04-29T20:36:32.857Z,19.07
2023-04-29T20:38:59.259Z,19.28
2023-04-29T20:41:29.285Z,20.00
2023-04-29T20:43:56.255Z,19.63
2023-04-29T20:46:24.649Z,19.64
2023-04-29T20:48:52.402Z,19.68
2023-04-29T20:51:18.818Z,19.23
2023-04-29T20:53:45.611Z,19.93
2023-04-29T20:56:12.050Z,19.38
2023-04-29T20:58:38.459Z,19.52
2023-04-29T21:01:04.972Z,20.09
2023-04-29T21:03:31.371Z,19.70
2023-04-29T21:05:58.007Z,20.07
2023-04-29T21:08:24.371Z,20.20
2023-04-29T21:10:51.101Z,19.75
2023-04-29T21:13:17.831Z,19.56
2023-04-29T21:15:47.279Z,19.77
2023-04-29T21:18:13.894Z,20.52
2023-04-29T21:20:40.586Z,20.75
2023-04-29T21:23:07.033Z,21.18
2023-04-29T21:25:33.514Z,20.49
2023-04-29T21:27:59.895Z,19.91
2023-04-29T21:30:32.883Z,20.68
2023-04-29T21:32:59.334Z,20.58
2023-04-29T21:35:26.774Z,20.31
2023-04-29T21:37:53.166Z,20.84
2023-04-29T21:40:19.738Z,20.45
2023-04-29T21:42:46.345Z,20.29
2023-04-29T21:45:17.641Z,20.09
2023-04-29T21:47:44.181Z,19.74
2023-04-29T21:50:11.562Z,20.18
2023-04-29T21:52:38.017Z,19.35
2023-04-29T21:55:05.107Z,19.89
2023-04-29T21:57:42.802Z,19.77
2023-04-29T22:00:20.797Z,20.03
2023-04-29T22:02:47.233Z,19.35
2023-04-29T22:05:13.835Z,19.71
2023-04-29T22:07:40.500Z,19.73
2023-04-29T22:10:07.397Z,19.52
2023-04-29T22:12:33.782Z,19.80
2023-04-29T22:15:00.302Z,20.47
2023-04-29T22:17:26.727Z,19.67
2023-04-29T22:19:53.471Z,19.90
2023-04-29T22:22:20.064Z,20.10
2023-04-29T22:24:46.461Z,20.08
2023-04-29T22:27:12.837Z,20.43
2023-04-29T22:29:39.389Z,20.27
2023-04-29T22:32:05.966Z,19.94
2023-04-29T22:34:32.371Z,20.23
2023-04-29T22:36:58.761Z,20.18
2023-04-29T22:39:25.216Z,20.08
2023-04-29T22:41:51.601Z,19.48
2023-04-29T22:44:18.017Z,19.76
2023-04-29T22:46:44.549Z,19.58
2023-04-29T22:49:10.992Z,19.40
2023-04-29T22:51:37.493Z,18.91
2023-04-29T22:54:03.945Z,18.92
2023-04-29T22:56:30.499Z,18.99
2023-04-29T22:58:56.991Z,19.33
2023-04-29T23:01:23.542Z,19.71
2023-04-29T23:03:49.963Z,19.21
2023-04-29T23:06:16.444Z,18.86
2023-04-29T23:08:44.476Z,19.38
2023-04-29T23:11:11.497Z,19.36
2023-04-29T23:13:38.157Z,19.39
2023-04-29T23:16:04.942Z,19.98
2023-04-29T23:18:31.437Z,19.36
2023-04-29T23:20:57.827Z,18.70
2023-04-29T23:23:24.655Z,18.14
2023-04-29T23:25:51.038Z,18.08
2023-04-29T23:28:17.442Z,18.31
2023-04-29T23:30:46.360Z,17.80
2023-04-29T23:33:13.153Z,18.24
2023-04-29T23:35:39.590Z,18.62
2023-04-29T23:38:05.990Z,18.57
2023-04-29T23:40:32.541Z,17.90
2023-04-29T23:42:58.932Z,18.00
2023-04-29T23:45:25.302Z,18.38
2023-04-29T23:47:51.776Z,18.22
2023-04-29T23:50:18.302Z,18.73
2023-04-29T23:52:44.697Z,18.28
2023-04-29T23:55:11.098Z,18.24
2023-04-29T23:57:37.548Z,18.35
